• Join FlightAware (Why Join?)
  • Login
  • US Flag 
03:52AM EST


 

Airport Tracker/Info


-or-


 

Live Flight TrackerFlight Track Log ✈ EJA929 ✈ 26-May-2013 ✈ KIAD - KBAF

Flight Track Log - Related Links

Times and Time Zones

All times are in EDT time to prevent confusion due to time zone crossing. See the EJA929 flight status page for this flight to view local times or setup timezone preferences in your user account.

Time Position Orientation Groundspeed Altitude Reporting Facility
EDT Latitude Longitude Course Direction KTS MPH feet Rate Location/Type
09:49AM 38.9667 -77.4333 360° North 182 209 3,100  Level Potomac TRACON
09:50AM 39.0333 -77.4333 360° North 205 236 6,700 2,950 Climbing Potomac TRACON
09:51AM 39.1000 -77.4333 360° North 252 290 9,000 1,200 Climbing Potomac TRACON
09:52AM 39.1667 -77.4000 21° North 276 318 9,100 1,000 Climbing Potomac TRACON
09:53AM 39.2000 -77.3167 63° Northeast 283 326 11,000 1,800 Climbing Potomac TRACON
09:55AM 39.3061 -77.0989 58° Northeast 344 396 14,800 1,351 Climbing Washington Center
09:56AM 39.3183 -76.9489 84° East 384 442 15,300 1,250 Climbing Washington Center
09:57AM 39.2992 -76.7903 99° East 410 472 17,300 1,900 Climbing Washington Center
09:58AM 39.2778 -76.6292 100° East 426 490 19,100 1,884 Climbing Washington Center
09:59AM 39.2583 -76.4681 99° East 445 512 21,100 1,785 Climbing Washington Center
10:00AM 39.2489 -76.2992 94° East 456 525 22,700 1,537 Climbing Washington Center
10:01AM 39.3103 -76.1494 62° Northeast 444 511 24,200 1,525 Climbing Washington Center
10:02AM 39.3878 -76.0050 55° Northeast 453 521 25,700 1,385 Climbing Washington Center
10:03AM 39.4633 -75.8603 56° Northeast 468 539 26,900 436 Climbing Washington Center
10:05AM 39.6269 -75.5497 56° Northeast 517 595 27,000 33 Climbing New York Center
10:06AM 39.7083 -75.3881 57° Northeast 528 608 27,000  Level New York Center
10:07AM 39.7894 -75.2286 56° Northeast 528 608 27,000  Level New York Center
10:08AM 39.8731 -75.0608 57° Northeast 540 621 27,000  Level New York Center
10:09AM 39.9667 -74.8878 55° Northeast 535 616 27,000  Level New York Center
10:10AM 40.0514 -74.7300 55° Northeast 540 621 27,000  Level New York Center
10:11AM 40.1358 -74.5719 55° Northeast 535 616 27,000  Level New York Center
10:12AM 40.2156 -74.4158 56° Northeast 522 601 27,000  Level New York Center
10:13AM 40.2975 -74.2625 55° Northeast 522 601 27,000 -500 Level New York Center
10:14AM 40.3769 -74.1083 56° Northeast 516 594 26,000 -1,155 Descending New York Center
10:16AM 40.5311 -73.8136 55° Northeast 484 557 23,400 -1,219 Descending Boston Center
10:17AM 40.6056 -73.6675 56° Northeast 479 551 22,200 -1,200 Descending Boston Center
10:18AM 40.6781 -73.5211 57° Northeast 479 551 21,000 -1,250 Descending Boston Center
10:19AM 40.7503 -73.3769 56° Northeast 479 551 19,700 -1,000 Descending Boston Center
10:20AM 40.8386 -73.2550 46° Northeast 465 535 19,000 -950 Descending Boston Center
10:21AM 40.9269 -73.1489 42° Northeast 436 502 17,800 -1,400 Descending Boston Center
10:22AM 41.0169 -73.0453 41° Northeast 427 491 16,200 -1,394 Descending Boston Center
10:23AM 41.0800 -72.9689 42° Northeast 404 465 15,500 -1,000 Descending Boston Center
10:23AM 41.1072 -72.9358 42° Northeast 416 479 15,200 -1,571 Descending Boston Center
10:23AM 41.1364 -72.9031 40° Northeast 393 452 14,400 -1,700 Descending Boston Center
10:24AM 41.1889 -72.8400 42° Northeast 399 459 13,500 -1,574 Descending Boston Center
10:24AM 41.2203 -72.8072 38° Northeast 396 456 12,800 -1,700 Descending Boston Center
10:25AM 41.2747 -72.7439 41° Northeast 399 459 11,800 -1,770 Descending Boston Center
10:25AM 41.3100 -72.7414 North 382 440 11,000 -800 Descending Boston Center
10:26AM 41.3744 -72.7608 347° North 348 400 11,000 -100 Level Boston Center
10:26AM 41.4058 -72.7667 352° North 321 369 10,900 -600 Descending Boston Center
10:27AM 41.4536 -72.7808 347° North 314 361 10,400 -984 Descending Boston Center
10:27AM 41.4828 -72.7892 348° North 264 304 9,900 -1,400 Descending Boston Center
10:28AM 41.5203 -72.8033 344° North 254 292 9,000 -1,475 Descending Boston Center
10:28AM 41.5453 -72.8089 351° North 237 273 8,400 -1,400 Descending Boston Center
10:29AM 41.5828 -72.8203 347° North 233 268 7,600 -1,600 Descending Boston Center
10:29AM 41.6100 -72.8261 351° North 224 258 6,800 -1,744 Descending Boston Center
10:30AM 41.6703 -72.8319 356° North 221 254 5,100 -885 Descending Boston Center
10:31AM 41.7328 -72.8239 North 233 268 5,000 -50 Descending Boston Center
10:32AM 41.7933 -72.8217 North 218 251 5,000  Level Boston Center
10:33AM 41.8539 -72.7997 15° North 216 249 5,000 -639 Level Boston Center
10:34AM 41.9081 -72.7889 North 202 232 3,700 -942 Descending Boston Center
10:35AM 41.9603 -72.7667 18° North 193 222 3,100 -347 Descending Boston Center
10:36AM 42.0122 -72.7531 11° North 194 223 3,000 -496 Descending Boston Center
10:37AM 42.0625 -72.7422 North 180 207 2,100 -843 Descending Boston Center
10:38AM 42.1019 -72.7311 12° North 138 159 1,300 -787 Descending Boston Center
10:39AM 42.1333 -72.7256 North 132 152 500 -787 Descending Boston Center